Time;durP1;ratioP1;P1;durP2;ratioP2;P2;SDS_P1;SDS_P2;PMS_P1;PMS_P2;Temp;Humidity;BMP_temperature;BMP_pressure;BME280_temperature;BME280_humidity;BME280_pressure;Samples;Min_cycle;Max_cycle;Signal;HPM_P1;HPM_P2
2023/01/10 00:00:06;;;;;;;;;;;9.20;99.90;;;;;;5095763;28;19940;-63
2023/01/10 00:02:32;;;;;;;;;;;9.30;99.90;;;;;;5082704;28;20634;-64
2023/01/10 00:04:57;;;;;;;;;;;9.20;99.90;;;;;;5079142;28;19918;-63
2023/01/10 00:07:23;;;;;;;;;;;9.10;99.90;;;;;;5079818;28;19944;-64
2023/01/10 00:09:48;;;;;;;;;;;9.00;99.90;;;;;;5076487;28;19924;-62
2023/01/10 00:14:58;;;;;;;;;;;9.00;99.90;;;;;;5076225;28;20269;-63
2023/01/10 00:17:24;;;;;;;;;;;9.00;99.90;;;;;;5080446;28;19928;-64
2023/01/10 00:19:49;;;;;;;;;;;9.00;99.90;;;;;;5100389;28;19935;-64
2023/01/10 00:22:17;;;;;;;;;;;9.00;99.90;;;;;;5113644;28;19908;-64
2023/01/10 00:24:43;;;;;;;;;;;8.90;99.90;;;;;;5081158;28;19954;-64
2023/01/10 00:27:11;;;;;;;;;;;8.90;99.90;;;;;;5073054;28;20303;-64
2023/01/10 00:29:37;;;;;;;;;;;8.90;99.90;;;;;;5073350;28;19912;-64
2023/01/10 00:32:03;;;;;;;;;;;8.90;99.90;;;;;;5073864;28;19919;-64
2023/01/10 00:34:29;;;;;;;;;;;9.00;99.90;;;;;;5094003;28;19912;-65
2023/01/10 00:36:55;;;;;;;;;;;9.00;99.90;;;;;;5084741;28;19912;-64
2023/01/10 00:39:22;;;;;;;;;;;9.00;99.90;;;;;;5079700;28;20738;-64
2023/01/10 00:44:32;;;;;;;;;;;9.10;99.90;;;;;;5079966;28;19935;-64
2023/01/10 00:46:58;;;;;;;;;;;9.10;99.90;;;;;;5078036;28;19912;-64
2023/01/10 00:49:23;;;;;;;;;;;9.10;99.90;;;;;;5079709;28;20378;-64
2023/01/10 00:51:49;;;;;;;;;;;9.10;99.90;;;;;;5098964;28;20002;-64
2023/01/10 00:54:14;;;;;;;;;;;9.10;99.90;;;;;;5077222;28;20014;-63
2023/01/10 00:56:40;;;;;;;;;;;9.10;99.90;;;;;;5075666;28;20641;-64
2023/01/10 00:59:06;;;;;;;;;;;9.10;99.90;;;;;;5074801;28;19921;-64
2023/01/10 01:01:32;;;;;;;;;;;9.10;99.90;;;;;;5077150;28;19912;-64
2023/01/10 01:04:00;;;;;;;;;;;9.10;99.90;;;;;;5075485;28;19928;-64
2023/01/10 01:06:26;;;;;;;;;;;9.10;99.90;;;;;;5075915;28;19920;-64
2023/01/10 01:08:52;;;;;;;;;;;9.10;99.90;;;;;;5074668;28;20401;-63
2023/01/10 01:11:17;;;;;;;;;;;9.10;99.90;;;;;;5075736;28;19917;-64
2023/01/10 01:13:43;;;;;;;;;;;9.10;99.90;;;;;;5090058;28;19915;-64
2023/01/10 01:16:09;;;;;;;;;;;9.10;99.90;;;;;;5100866;28;19920;-66
2023/01/10 01:18:34;;;;;;;;;;;9.10;99.90;;;;;;5103980;28;19982;-64
2023/01/10 01:21:02;;;;;;;;;;;9.10;99.90;;;;;;5107450;28;19915;-64
2023/01/10 01:23:28;;;;;;;;;;;9.10;99.90;;;;;;5112404;28;20012;-64
2023/01/10 01:25:54;;;;;;;;;;;9.00;99.90;;;;;;5094483;28;19963;-64
2023/01/10 01:28:20;;;;;;;;;;;9.00;99.90;;;;;;5090430;28;19951;-64
2023/01/10 01:30:46;;;;;;;;;;;9.10;99.90;;;;;;5091685;28;19908;-64
2023/01/10 01:33:12;;;;;;;;;;;9.10;99.90;;;;;;5089875;28;19914;-64
2023/01/10 01:35:40;;;;;;;;;;;9.20;99.90;;;;;;5083768;28;19953;-64
2023/01/10 01:38:06;;;;;;;;;;;9.30;99.90;;;;;;5091579;28;19971;-64
2023/01/10 01:40:32;;;;;;;;;;;9.30;99.90;;;;;;5091283;28;19951;-64
2023/01/10 01:42:57;;;;;;;;;;;9.40;99.90;;;;;;5091684;28;19908;-64
2023/01/10 01:45:23;;;;;;;;;;;9.30;99.90;;;;;;5090406;28;19993;-64
2023/01/10 01:47:56;;;;;;;;;;;9.30;99.90;;;;;;5090280;28;19920;-64
2023/01/10 01:50:40;;;;;;;;;;;9.40;99.90;;;;;;5100419;28;20219;-64
2023/01/10 01:53:12;;;;;;;;;;;9.50;99.90;;;;;;5101852;28;19991;-64
2023/01/10 01:55:38;;;;;;;;;;;9.50;99.90;;;;;;5107176;28;20301;-64
2023/01/10 01:58:05;;;;;;;;;;;9.50;99.90;;;;;;5100653;28;19919;-64
2023/01/10 02:00:30;;;;;;;;;;;9.50;99.90;;;;;;5101591;28;20381;-64
2023/01/10 02:02:58;;;;;;;;;;;9.50;99.90;;;;;;5107896;28;19927;-64
2023/01/10 02:05:23;;;;;;;;;;;9.40;99.90;;;;;;5102666;28;19911;-63
2023/01/10 02:07:51;;;;;;;;;;;9.50;99.90;;;;;;5093166;28;19935;-63
2023/01/10 02:10:33;;;;;;;;;;;9.50;99.90;;;;;;5089758;28;19920;-64
2023/01/10 02:13:01;;;;;;;;;;;9.50;99.90;;;;;;5085162;28;20005;-64
2023/01/10 02:15:27;;;;;;;;;;;9.50;99.90;;;;;;5108113;28;19916;-64
2023/01/10 02:17:53;;;;;;;;;;;9.50;99.90;;;;;;5108886;28;19908;-64
2023/01/10 02:20:20;;;;;;;;;;;9.50;99.90;;;;;;5103613;28;19916;-64
2023/01/10 02:23:00;;;;;;;;;;;9.50;99.90;;;;;;5108321;28;19982;-64
2023/01/10 02:25:44;;;;;;;;;;;9.60;99.90;;;;;;5106458;28;20378;-64
2023/01/10 02:28:22;;;;;;;;;;;9.60;99.90;;;;;;5090327;28;19908;-64
2023/01/10 02:31:00;;;;;;;;;;;9.70;99.90;;;;;;5091082;28;20452;-64
2023/01/10 02:33:44;;;;;;;;;;;9.70;99.90;;;;;;5090857;28;19943;-64
2023/01/10 02:36:24;;;;;;;;;;;9.60;99.90;;;;;;5086633;28;19990;-63
2023/01/10 02:38:50;;;;;;;;;;;9.60;99.90;;;;;;5084767;28;19922;-64
2023/01/10 02:41:18;;;;;;;;;;;9.60;99.90;;;;;;5090928;28;19994;-63
2023/01/10 02:43:50;;;;;;;;;;;9.50;99.90;;;;;;5082957;28;19953;-63
2023/01/10 02:46:23;;;;;;;;;;;9.60;99.90;;;;;;5069825;28;20008;-64
2023/01/10 02:48:50;;;;;;;;;;;9.60;99.90;;;;;;5107068;28;19908;-64
2023/01/10 02:51:17;;;;;;;;;;;9.60;99.90;;;;;;5102615;28;19911;-64
2023/01/10 02:53:45;;;;;;;;;;;9.60;99.90;;;;;;5086252;28;19907;-64
2023/01/10 02:56:23;;;;;;;;;;;9.50;99.90;;;;;;5106742;28;20018;-64
2023/01/10 02:59:07;;;;;;;;;;;9.50;99.90;;;;;;5103903;28;20404;-64
2023/01/10 03:01:55;;;;;;;;;;;9.50;99.90;;;;;;5087766;28;20022;-64
2023/01/10 03:04:26;;;;;;;;;;;9.50;99.90;;;;;;5084265;28;19912;-64
2023/01/10 03:07:01;;;;;;;;;;;9.50;99.90;;;;;;5072547;28;19916;-63
2023/01/10 03:09:32;;;;;;;;;;;9.50;99.90;;;;;;5077380;28;19939;-63
2023/01/10 03:12:03;;;;;;;;;;;9.50;99.90;;;;;;5075506;28;19937;-64
2023/01/10 03:14:29;;;;;;;;;;;9.50;99.90;;;;;;5076048;28;20370;-64
2023/01/10 03:16:59;;;;;;;;;;;9.60;99.90;;;;;;5073149;28;20308;-64
2023/01/10 03:19:27;;;;;;;;;;;9.50;99.90;;;;;;5074880;28;20003;-63
2023/01/10 03:21:55;;;;;;;;;;;9.50;99.90;;;;;;5076120;28;20373;-63
2023/01/10 03:24:24;;;;;;;;;;;9.40;99.90;;;;;;5099392;28;20003;-63
2023/01/10 03:26:52;;;;;;;;;;;9.40;99.90;;;;;;5101112;28;20303;-63
2023/01/10 03:29:23;;;;;;;;;;;9.40;99.90;;;;;;5109520;28;19908;-64
2023/01/10 03:31:55;;;;;;;;;;;9.30;99.90;;;;;;5093727;28;20006;-64
2023/01/10 03:34:21;;;;;;;;;;;9.30;99.90;;;;;;5089049;28;20583;-64
2023/01/10 03:36:51;;;;;;;;;;;9.20;99.90;;;;;;5090121;28;19970;-64
2023/01/10 03:39:17;;;;;;;;;;;9.20;99.90;;;;;;5084509;28;20385;-64
2023/01/10 03:41:48;;;;;;;;;;;9.20;99.90;;;;;;5076637;28;19916;-65
2023/01/10 03:47:06;;;;;;;;;;;9.10;99.90;;;;;;5074917;28;19919;-64
2023/01/10 03:49:33;;;;;;;;;;;9.20;99.90;;;;;;5087865;28;20384;-64
2023/01/10 03:51:59;;;;;;;;;;;9.10;99.90;;;;;;5072218;28;19923;-64
2023/01/10 03:54:25;;;;;;;;;;;9.10;99.90;;;;;;5074018;28;19921;-64
2023/01/10 03:56:51;;;;;;;;;;;9.10;99.90;;;;;;5075465;28;19955;-64
2023/01/10 03:59:26;;;;;;;;;;;9.20;99.90;;;;;;5080171;28;19932;-64
2023/01/10 04:01:52;;;;;;;;;;;9.10;99.90;;;;;;5074303;28;20469;-65
2023/01/10 04:04:17;;;;;;;;;;;9.10;99.90;;;;;;5086849;28;19919;-64
2023/01/10 04:06:43;;;;;;;;;;;9.20;99.90;;;;;;5092060;28;19982;-66
2023/01/10 04:09:08;;;;;;;;;;;9.20;99.90;;;;;;5083453;28;19923;-63
2023/01/10 04:11:34;;;;;;;;;;;9.20;99.90;;;;;;5077705;28;19912;-63
2023/01/10 04:13:59;;;;;;;;;;;9.20;99.90;;;;;;5073543;28;19912;-63
2023/01/10 04:16:25;;;;;;;;;;;9.20;99.90;;;;;;5056624;28;19920;-63
2023/01/10 04:18:50;;;;;;;;;;;9.20;99.90;;;;;;5073267;28;19967;-63
2023/01/10 04:21:16;;;;;;;;;;;9.30;99.90;;;;;;5076719;28;19927;-63
2023/01/10 04:23:42;;;;;;;;;;;9.20;99.90;;;;;;5073271;28;19913;-64
2023/01/10 04:26:07;;;;;;;;;;;9.20;99.90;;;;;;5076984;28;19913;-66
2023/01/10 04:28:33;;;;;;;;;;;9.30;99.90;;;;;;5074864;28;20018;-65
2023/01/10 04:30:58;;;;;;;;;;;9.20;99.90;;;;;;5075277;28;19920;-65
2023/01/10 04:33:24;;;;;;;;;;;9.20;99.90;;;;;;5075430;28;19912;-64
2023/01/10 04:35:50;;;;;;;;;;;9.20;99.90;;;;;;5078790;28;19924;-65
2023/01/10 04:38:16;;;;;;;;;;;9.30;99.90;;;;;;5072457;28;19916;-64
2023/01/10 04:40:42;;;;;;;;;;;9.30;99.90;;;;;;5075979;28;19916;-65
2023/01/10 04:43:08;;;;;;;;;;;9.30;99.90;;;;;;5080032;28;19918;-65
2023/01/10 04:45:34;;;;;;;;;;;9.30;99.90;;;;;;5104510;28;19912;-64
2023/01/10 04:47:59;;;;;;;;;;;9.40;99.90;;;;;;5106014;28;20026;-65
2023/01/10 04:50:25;;;;;;;;;;;9.30;99.90;;;;;;5082710;28;19952;-65
2023/01/10 04:52:51;;;;;;;;;;;9.30;99.90;;;;;;5065281;28;20283;-65
2023/01/10 04:55:16;;;;;;;;;;;9.30;99.90;;;;;;5081087;28;19920;-65
2023/01/10 04:57:42;;;;;;;;;;;9.40;99.90;;;;;;5076267;28;19916;-64
2023/01/10 05:00:08;;;;;;;;;;;9.40;99.90;;;;;;5076178;28;19915;-65
2023/01/10 05:02:33;;;;;;;;;;;9.30;99.90;;;;;;5081872;28;19911;-65
2023/01/10 05:04:59;;;;;;;;;;;9.30;99.90;;;;;;5075347;28;19995;-65
2023/01/10 05:07:25;;;;;;;;;;;9.30;99.90;;;;;;5075310;28;19939;-65
2023/01/10 05:09:50;;;;;;;;;;;9.30;99.90;;;;;;5078526;28;20005;-64
2023/01/10 05:12:16;;;;;;;;;;;9.30;99.90;;;;;;5059445;28;20034;-65
2023/01/10 05:14:41;;;;;;;;;;;9.20;99.90;;;;;;5072945;28;19916;-65
2023/01/10 05:17:07;;;;;;;;;;;9.20;99.90;;;;;;5096428;28;19919;-64
2023/01/10 05:19:32;;;;;;;;;;;9.30;99.90;;;;;;5109909;28;19911;-65
2023/01/10 05:21:58;;;;;;;;;;;9.30;99.90;;;;;;5113354;28;19918;-65
2023/01/10 05:24:24;;;;;;;;;;;9.30;99.90;;;;;;5112929;28;19977;-65
2023/01/10 05:26:49;;;;;;;;;;;9.30;99.90;;;;;;5073264;28;19955;-65
2023/01/10 05:29:15;;;;;;;;;;;9.20;99.90;;;;;;5072264;28;19974;-65
2023/01/10 05:31:41;;;;;;;;;;;9.30;99.90;;;;;;5072255;28;19908;-63
2023/01/10 05:34:10;;;;;;;;;;;9.30;99.90;;;;;;5077708;28;19916;-64
2023/01/10 05:36:35;;;;;;;;;;;9.30;99.90;;;;;;5072123;28;19909;-64
2023/01/10 05:39:01;;;;;;;;;;;9.40;99.90;;;;;;5080218;28;19973;-65
2023/01/10 05:41:26;;;;;;;;;;;9.40;99.90;;;;;;5083200;28;19923;-65
2023/01/10 05:43:52;;;;;;;;;;;9.40;99.90;;;;;;5072076;28;20061;-65
2023/01/10 05:46:17;;;;;;;;;;;9.40;99.90;;;;;;5082761;28;19908;-65
2023/01/10 05:48:43;;;;;;;;;;;9.40;99.90;;;;;;5103265;28;20266;-65
2023/01/10 05:51:08;;;;;;;;;;;9.40;99.90;;;;;;5067830;28;20308;-64
2023/01/10 05:53:34;;;;;;;;;;;9.30;99.90;;;;;;5090691;28;20334;-66
2023/01/10 05:56:00;;;;;;;;;;;9.20;99.90;;;;;;5077889;28;20298;-66
2023/01/10 05:58:26;;;;;;;;;;;9.20;99.90;;;;;;5091046;28;20414;-65
2023/01/10 06:00:53;;;;;;;;;;;9.30;99.90;;;;;;5090825;28;19919;-65
2023/01/10 06:03:19;;;;;;;;;;;9.30;99.90;;;;;;5096897;28;20318;-64
2023/01/10 06:05:44;;;;;;;;;;;9.30;99.90;;;;;;5104407;28;19954;-64
2023/01/10 06:08:10;;;;;;;;;;;9.30;99.90;;;;;;5100467;28;19918;-64
2023/01/10 06:10:35;;;;;;;;;;;9.30;99.90;;;;;;5103840;28;19912;-63
2023/01/10 06:13:01;;;;;;;;;;;9.30;99.90;;;;;;5099571;28;19912;-64
2023/01/10 06:15:27;;;;;;;;;;;9.30;99.90;;;;;;5086843;28;20262;-64
2023/01/10 06:17:52;;;;;;;;;;;9.20;99.90;;;;;;5094776;28;20092;-66
2023/01/10 06:20:18;;;;;;;;;;;9.10;99.90;;;;;;5094257;28;19938;-64
2023/01/10 06:22:43;;;;;;;;;;;9.00;99.90;;;;;;5098617;28;19912;-65
2023/01/10 06:25:10;;;;;;;;;;;8.90;99.90;;;;;;5098334;28;19912;-65
2023/01/10 06:27:37;;;;;;;;;;;9.00;99.90;;;;;;5102240;28;19908;-65
2023/01/10 06:30:03;;;;;;;;;;;9.00;99.90;;;;;;5105998;28;19909;-64
2023/01/10 06:32:28;;;;;;;;;;;9.00;99.90;;;;;;5097794;28;19913;-65
2023/01/10 06:34:54;;;;;;;;;;;8.90;99.90;;;;;;5106014;28;20374;-64
2023/01/10 06:37:20;;;;;;;;;;;8.90;99.90;;;;;;5100804;28;19953;-65
2023/01/10 06:39:45;;;;;;;;;;;8.90;99.90;;;;;;5093611;28;19922;-65
2023/01/10 06:42:11;;;;;;;;;;;8.80;99.90;;;;;;5085861;28;19935;-65
2023/01/10 06:44:37;;;;;;;;;;;8.80;99.90;;;;;;5099990;28;19919;-64
2023/01/10 06:47:02;;;;;;;;;;;8.80;99.90;;;;;;5094888;28;20282;-62
2023/01/10 06:49:28;;;;;;;;;;;8.70;99.90;;;;;;5073824;28;19912;-61
2023/01/10 06:51:54;;;;;;;;;;;8.80;99.90;;;;;;5080318;28;19919;-61
2023/01/10 06:54:20;;;;;;;;;;;8.70;99.90;;;;;;5103990;28;19923;-62
2023/01/10 06:56:49;;;;;;;;;;;8.70;99.90;;;;;;5091882;28;19915;-62
2023/01/10 06:59:14;;;;;;;;;;;8.70;99.90;;;;;;5106435;28;19916;-63
2023/01/10 07:01:40;;;;;;;;;;;8.70;99.90;;;;;;5106339;28;20024;-61
2023/01/10 07:04:05;;;;;;;;;;;8.60;99.90;;;;;;5096070;28;20322;-61
2023/01/10 07:06:36;;;;;;;;;;;8.70;99.90;;;;;;5104894;28;20388;-61
2023/01/10 07:09:01;;;;;;;;;;;8.60;99.90;;;;;;5086851;28;19912;-61
2023/01/10 07:11:27;;;;;;;;;;;8.50;99.90;;;;;;5091645;28;19962;-61
2023/01/10 07:13:53;;;;;;;;;;;8.50;99.90;;;;;;5101558;28;19939;-62
2023/01/10 07:16:18;;;;;;;;;;;8.60;99.90;;;;;;5091408;28;20283;-61
2023/01/10 07:18:44;;;;;;;;;;;8.60;99.90;;;;;;5104099;28;19923;-61
2023/01/10 07:21:09;;;;;;;;;;;8.60;99.90;;;;;;5103562;28;20404;-62
2023/01/10 07:23:35;;;;;;;;;;;8.70;99.90;;;;;;5104359;28;19911;-62
2023/01/10 07:26:01;;;;;;;;;;;8.70;99.90;;;;;;5108183;28;19908;-62
2023/01/10 07:28:27;;;;;;;;;;;8.70;99.90;;;;;;5097722;28;20003;-61
2023/01/10 07:30:52;;;;;;;;;;;8.60;99.90;;;;;;5090433;28;20362;-61
2023/01/10 07:33:18;;;;;;;;;;;8.70;99.90;;;;;;5090356;28;19915;-62
2023/01/10 07:35:44;;;;;;;;;;;8.80;99.90;;;;;;5090198;28;19965;-64
2023/01/10 07:38:09;;;;;;;;;;;8.80;99.90;;;;;;5101107;28;20391;-62
2023/01/10 07:40:35;;;;;;;;;;;8.90;99.90;;;;;;5095570;28;19912;-63
2023/01/10 07:43:01;;;;;;;;;;;8.90;99.90;;;;;;5088788;28;19970;-59
2023/01/10 07:45:27;;;;;;;;;;;8.90;99.90;;;;;;5089547;28;20403;-61
2023/01/10 07:47:57;;;;;;;;;;;8.80;99.90;;;;;;5089671;28;20380;-62
2023/01/10 07:50:22;;;;;;;;;;;8.70;99.90;;;;;;5089810;28;19955;-61
2023/01/10 07:52:48;;;;;;;;;;;8.70;99.90;;;;;;5089012;28;19954;-60
2023/01/10 07:55:13;;;;;;;;;;;8.70;99.90;;;;;;5100587;28;19913;-63
2023/01/10 07:57:39;;;;;;;;;;;8.80;99.90;;;;;;5101871;28;20110;-62
2023/01/10 08:00:05;;;;;;;;;;;8.90;99.90;;;;;;5109323;28;20277;-63
2023/01/10 08:02:30;;;;;;;;;;;9.10;99.90;;;;;;5105377;28;19969;-62
2023/01/10 08:04:56;;;;;;;;;;;9.10;99.90;;;;;;5103663;28;19998;-62
2023/01/10 08:07:22;;;;;;;;;;;9.10;99.90;;;;;;5094302;28;20274;-62
2023/01/10 08:09:47;;;;;;;;;;;9.00;99.90;;;;;;5095901;28;19935;-62
2023/01/10 08:12:13;;;;;;;;;;;8.90;99.90;;;;;;5091399;28;20299;-61
2023/01/10 08:14:38;;;;;;;;;;;8.90;99.90;;;;;;5097728;28;19919;-62
2023/01/10 08:17:04;;;;;;;;;;;8.90;99.90;;;;;;5085877;28;20094;-62
2023/01/10 08:19:29;;;;;;;;;;;8.90;99.90;;;;;;5104980;28;19924;-62
2023/01/10 08:21:55;;;;;;;;;;;9.00;99.90;;;;;;5107482;28;19992;-62
2023/01/10 08:24:20;;;;;;;;;;;9.00;99.90;;;;;;5096582;28;19912;-61
2023/01/10 08:26:46;;;;;;;;;;;9.10;99.90;;;;;;5103371;28;20338;-63
2023/01/10 08:29:11;;;;;;;;;;;9.20;99.90;;;;;;5107854;28;20273;-63
2023/01/10 08:31:39;;;;;;;;;;;9.20;99.90;;;;;;5113829;28;19930;-62
2023/01/10 08:34:04;;;;;;;;;;;9.20;99.90;;;;;;5095079;28;19921;-61
2023/01/10 08:36:30;;;;;;;;;;;9.40;99.90;;;;;;5109663;28;19922;-62
2023/01/10 08:38:56;;;;;;;;;;;9.40;99.90;;;;;;5105880;28;20010;-61
2023/01/10 08:41:21;;;;;;;;;;;9.40;99.90;;;;;;5113687;28;19908;-61
2023/01/10 08:43:50;;;;;;;;;;;9.50;99.90;;;;;;5091944;28;19927;-61
2023/01/10 08:46:16;;;;;;;;;;;9.60;99.90;;;;;;5099555;28;19918;-61
2023/01/10 08:48:42;;;;;;;;;;;9.70;99.90;;;;;;5108577;28;19924;-61
2023/01/10 08:51:08;;;;;;;;;;;9.80;99.90;;;;;;5109867;28;20002;-62
2023/01/10 08:53:36;;;;;;;;;;;9.80;99.90;;;;;;5110074;28;19916;-61
2023/01/10 08:56:02;;;;;;;;;;;9.90;99.90;;;;;;5103216;28;19912;-62
2023/01/10 08:58:27;;;;;;;;;;;10.00;99.90;;;;;;5100422;28;20369;-62
2023/01/10 09:00:53;;;;;;;;;;;10.00;99.90;;;;;;5108276;28;19955;-61
2023/01/10 09:03:18;;;;;;;;;;;10.20;99.90;;;;;;5101844;28;19918;-62
2023/01/10 09:05:44;;;;;;;;;;;10.20;99.90;;;;;;5107833;28;19920;-62
2023/01/10 09:08:10;;;;;;;;;;;10.30;99.90;;;;;;5104345;28;19920;-63
2023/01/10 09:10:35;;;;;;;;;;;10.30;99.90;;;;;;5104971;28;19912;-62
2023/01/10 09:13:01;;;;;;;;;;;10.30;99.90;;;;;;5105796;28;20404;-63
2023/01/10 09:15:28;;;;;;;;;;;10.40;99.90;;;;;;5108426;28;19920;-64
2023/01/10 09:17:54;;;;;;;;;;;10.50;99.90;;;;;;5106305;28;19916;-63
2023/01/10 09:20:20;;;;;;;;;;;10.60;99.90;;;;;;5110479;28;19922;-61
2023/01/10 09:22:46;;;;;;;;;;;10.60;99.90;;;;;;5108879;28;19998;-62
2023/01/10 09:25:11;;;;;;;;;;;10.70;99.90;;;;;;5106003;28;19987;-61
2023/01/10 09:27:37;;;;;;;;;;;10.80;99.90;;;;;;5111856;28;19915;-62
2023/01/10 09:30:03;;;;;;;;;;;10.80;99.90;;;;;;5100202;28;19908;-63
2023/01/10 09:32:28;;;;;;;;;;;10.90;99.90;;;;;;5092220;28;20014;-63
2023/01/10 09:34:54;;;;;;;;;;;10.90;99.90;;;;;;5092409;28;19951;-62
2023/01/10 09:37:19;;;;;;;;;;;11.00;99.90;;;;;;5093318;28;19919;-63
2023/01/10 09:39:45;;;;;;;;;;;11.10;99.90;;;;;;5092130;28;19916;-63
2023/01/10 09:42:18;;;;;;;;;;;11.10;99.90;;;;;;5080240;28;19916;-62
2023/01/10 09:44:43;;;;;;;;;;;11.20;99.90;;;;;;5087498;28;20365;-61
2023/01/10 09:47:14;;;;;;;;;;;11.30;99.90;;;;;;5091724;28;20027;-62
2023/01/10 09:49:40;;;;;;;;;;;11.30;99.90;;;;;;5091446;28;19908;-62
2023/01/10 09:52:13;;;;;;;;;;;11.40;99.90;;;;;;5091968;28;20487;-63
2023/01/10 09:54:40;;;;;;;;;;;11.40;99.90;;;;;;5101508;28;19918;-63
2023/01/10 09:57:12;;;;;;;;;;;11.40;99.90;;;;;;5106556;28;19958;-63
2023/01/10 09:59:39;;;;;;;;;;;11.40;99.90;;;;;;5106876;28;20031;-64
2023/01/10 10:02:24;;;;;;;;;;;11.50;99.90;;;;;;5093932;28;19919;-64
2023/01/10 10:04:56;;;;;;;;;;;11.60;99.90;;;;;;5105457;28;19973;-63
2023/01/10 10:07:22;;;;;;;;;;;11.60;99.90;;;;;;5106754;28;20261;-63
2023/01/10 10:09:47;;;;;;;;;;;11.70;99.90;;;;;;5100127;28;20003;-62
2023/01/10 10:12:22;;;;;;;;;;;11.70;99.90;;;;;;5100469;28;19919;-63
2023/01/10 10:14:54;;;;;;;;;;;11.70;99.90;;;;;;5098958;28;19981;-65
2023/01/10 10:17:39;;;;;;;;;;;11.70;99.90;;;;;;5097702;28;19912;-64
2023/01/10 10:20:24;;;;;;;;;;;11.70;99.90;;;;;;5105796;28;20006;-61
2023/01/10 10:22:49;;;;;;;;;;;11.80;99.90;;;;;;5109491;28;20397;-63
2023/01/10 10:25:23;;;;;;;;;;;11.80;99.90;;;;;;5099964;28;19908;-63
2023/01/10 10:28:09;;;;;;;;;;;11.90;99.90;;;;;;5104603;28;19934;-63
2023/01/10 10:30:35;;;;;;;;;;;12.00;99.90;;;;;;5086442;28;19912;-63
2023/01/10 10:33:19;;;;;;;;;;;12.00;99.90;;;;;;5104265;28;20330;-62
2023/01/10 10:35:49;;;;;;;;;;;12.00;99.90;;;;;;5107115;28;19995;-63
2023/01/10 10:38:32;;;;;;;;;;;12.10;99.90;;;;;;5101286;28;20337;-62
2023/01/10 10:40:58;;;;;;;;;;;12.10;99.90;;;;;;5110818;28;19923;-63
2023/01/10 10:43:29;;;;;;;;;;;12.10;99.90;;;;;;5104621;28;19948;-62
2023/01/10 10:46:06;;;;;;;;;;;12.20;99.90;;;;;;5093495;28;19920;-64
2023/01/10 10:48:35;;;;;;;;;;;12.20;99.90;;;;;;5105491;28;19916;-64
2023/01/10 10:51:00;;;;;;;;;;;12.20;99.90;;;;;;5106176;28;19965;-63
2023/01/10 10:53:26;;;;;;;;;;;12.30;99.90;;;;;;5105439;28;19916;-62
2023/01/10 10:55:52;;;;;;;;;;;12.40;99.90;;;;;;5099775;28;19912;-62
2023/01/10 10:58:18;;;;;;;;;;;12.30;99.90;;;;;;5083587;28;20019;-64
2023/01/10 11:00:43;;;;;;;;;;;12.40;99.90;;;;;;5108565;28;19959;-64
2023/01/10 11:03:24;;;;;;;;;;;12.40;99.90;;;;;;5105702;28;20325;-63
2023/01/10 11:05:49;;;;;;;;;;;12.40;99.90;;;;;;5105645;28;19915;-63
2023/01/10 11:08:16;;;;;;;;;;;12.50;99.90;;;;;;5100870;28;19915;-62
2023/01/10 11:10:44;;;;;;;;;;;12.60;99.90;;;;;;5103975;28;20376;-62
2023/01/10 11:13:20;;;;;;;;;;;12.60;99.90;;;;;;5075019;28;19911;-63
2023/01/10 11:15:47;;;;;;;;;;;12.60;99.90;;;;;;5098468;28;19911;-65
2023/01/10 11:18:15;;;;;;;;;;;12.50;99.90;;;;;;5083192;28;19959;-62
2023/01/10 11:20:48;;;;;;;;;;;12.50;99.90;;;;;;5097234;28;20291;-64
2023/01/10 11:23:39;;;;;;;;;;;12.50;99.90;;;;;;5107390;28;19908;-62
2023/01/10 11:26:24;;;;;;;;;;;12.50;99.90;;;;;;5074672;28;20417;-63
2023/01/10 11:29:04;;;;;;;;;;;12.60;99.90;;;;;;5109835;28;19928;-62
2023/01/10 11:31:31;;;;;;;;;;;12.60;99.90;;;;;;5091123;28;19916;-63
2023/01/10 11:33:56;;;;;;;;;;;12.60;99.90;;;;;;5073717;28;19919;-63
2023/01/10 11:36:22;;;;;;;;;;;12.50;99.90;;;;;;5090352;28;19912;-63
2023/01/10 11:38:58;;;;;;;;;;;12.60;99.90;;;;;;5089350;28;20404;-62
2023/01/10 11:41:26;;;;;;;;;;;12.60;99.90;;;;;;5090131;28;19912;-63
2023/01/10 11:43:51;;;;;;;;;;;12.60;99.90;;;;;;5089960;28;20348;-60
2023/01/10 11:46:21;;;;;;;;;;;12.60;99.90;;;;;;5089939;28;19915;-62
2023/01/10 11:49:02;;;;;;;;;;;12.60;99.90;;;;;;5090151;28;19999;-61
2023/01/10 11:51:39;;;;;;;;;;;12.60;99.90;;;;;;5090466;28;19973;-62
2023/01/10 11:54:14;;;;;;;;;;;12.60;99.90;;;;;;5092832;28;19931;-62
2023/01/10 11:56:40;;;;;;;;;;;12.60;99.90;;;;;;5101984;28;20016;-60
2023/01/10 11:59:11;;;;;;;;;;;12.60;99.90;;;;;;5109856;28;19994;-64
2023/01/10 12:01:41;;;;;;;;;;;12.60;99.90;;;;;;5099001;28;19931;-62
2023/01/10 12:04:12;;;;;;;;;;;12.60;99.90;;;;;;5109894;28;19919;-62
2023/01/10 12:06:41;;;;;;;;;;;12.70;99.90;;;;;;5099582;28;20006;-61
2023/01/10 12:09:27;;;;;;;;;;;12.70;99.90;;;;;;5109739;28;19916;-63
2023/01/10 12:12:00;;;;;;;;;;;12.60;99.90;;;;;;5110884;28;19950;-64
2023/01/10 12:14:26;;;;;;;;;;;12.60;99.90;;;;;;5108529;28;19912;-65
2023/01/10 12:16:57;;;;;;;;;;;12.60;99.90;;;;;;5092018;28;19958;-63
2023/01/10 12:19:23;;;;;;;;;;;12.70;99.90;;;;;;5114037;28;19911;-61
2023/01/10 12:21:50;;;;;;;;;;;12.80;99.90;;;;;;5105792;28;20243;-58
2023/01/10 12:24:15;;;;;;;;;;;12.80;99.90;;;;;;5103809;28;19922;-61
2023/01/10 12:26:41;;;;;;;;;;;12.70;99.90;;;;;;5098791;28;19991;-65
2023/01/10 12:29:15;;;;;;;;;;;12.70;99.90;;;;;;5084536;28;19917;-64
2023/01/10 12:31:40;;;;;;;;;;;12.70;99.90;;;;;;5104418;28;19918;-63
2023/01/10 12:34:16;;;;;;;;;;;12.80;99.90;;;;;;5103518;28;19912;-62
2023/01/10 12:36:43;;;;;;;;;;;12.70;99.90;;;;;;5098456;28;19912;-63
2023/01/10 12:39:15;;;;;;;;;;;12.70;99.90;;;;;;5105955;28;19969;-63
2023/01/10 12:44:44;;;;;;;;;;;12.70;99.90;;;;;;5099578;28;19920;-62
2023/01/10 12:47:19;;;;;;;;;;;12.60;99.90;;;;;;5094694;28;19916;-62
2023/01/10 12:50:08;;;;;;;;;;;12.60;99.90;;;;;;5094854;28;19909;-62
2023/01/10 12:52:44;;;;;;;;;;;12.50;99.90;;;;;;5098120;28;19912;-64
2023/01/10 12:55:17;;;;;;;;;;;12.50;99.90;;;;;;5104202;28;19911;-63
2023/01/10 12:57:47;;;;;;;;;;;12.50;99.90;;;;;;5092406;28;20335;-63
2023/01/10 13:00:38;;;;;;;;;;;12.50;99.90;;;;;;5085408;28;19920;-62
2023/01/10 13:03:12;;;;;;;;;;;12.60;99.90;;;;;;5093589;28;19927;-63
2023/01/10 13:05:37;;;;;;;;;;;12.60;99.90;;;;;;5101924;28;19919;-62
2023/01/10 13:08:09;;;;;;;;;;;12.60;99.90;;;;;;5093726;28;19966;-63
2023/01/10 13:10:37;;;;;;;;;;;12.60;99.90;;;;;;5098212;28;19940;-64
2023/01/10 13:13:10;;;;;;;;;;;12.60;99.90;;;;;;5099630;28;20281;-65
2023/01/10 13:15:37;;;;;;;;;;;12.70;99.90;;;;;;5096472;28;20466;-61
2023/01/10 13:18:14;;;;;;;;;;;12.70;99.90;;;;;;5100040;28;19912;-60
2023/01/10 13:20:43;;;;;;;;;;;12.70;99.90;;;;;;5101806;28;19926;-61
2023/01/10 13:23:22;;;;;;;;;;;12.70;99.90;;;;;;5105402;28;19920;-61
2023/01/10 13:25:55;;;;;;;;;;;12.70;99.90;;;;;;5106371;28;20019;-62
2023/01/10 13:28:27;;;;;;;;;;;12.70;99.90;;;;;;5094951;28;20410;-58
2023/01/10 13:30:54;;;;;;;;;;;12.60;99.90;;;;;;5076962;28;19940;-63
2023/01/10 13:33:22;;;;;;;;;;;12.60;99.90;;;;;;5092904;28;20009;-62
2023/01/10 13:35:48;;;;;;;;;;;12.60;99.90;;;;;;5102584;28;20311;-64
2023/01/10 13:38:25;;;;;;;;;;;12.50;99.90;;;;;;5093658;28;19965;-63
2023/01/10 13:40:55;;;;;;;;;;;12.50;99.90;;;;;;5097041;28;20455;-62
2023/01/10 13:43:28;;;;;;;;;;;12.50;99.90;;;;;;5101604;28;19923;-66
2023/01/10 13:46:12;;;;;;;;;;;12.50;99.90;;;;;;5107695;28;19977;-64
2023/01/10 13:48:37;;;;;;;;;;;12.40;99.90;;;;;;5077705;28;19920;-63
2023/01/10 13:51:21;;;;;;;;;;;12.50;99.90;;;;;;5103576;28;19919;-64
2023/01/10 13:53:56;;;;;;;;;;;12.50;99.90;;;;;;5098396;28;19916;-67
2023/01/10 13:56:27;;;;;;;;;;;12.40;99.90;;;;;;5112434;28;19916;-66
2023/01/10 14:04:23;;;;;;;;;;;12.30;99.90;;;;;;5112571;28;19987;-65
2023/01/10 14:06:57;;;;;;;;;;;12.30;99.90;;;;;;5099765;28;19924;-62
2023/01/10 14:09:23;;;;;;;;;;;12.30;99.90;;;;;;5093249;28;19912;-65
2023/01/10 14:11:51;;;;;;;;;;;12.20;99.90;;;;;;5110329;28;19918;-64
2023/01/10 14:14:17;;;;;;;;;;;12.20;99.90;;;;;;5111718;28;19912;-65
2023/01/10 14:16:43;;;;;;;;;;;12.30;99.90;;;;;;5112086;28;20006;-64
2023/01/10 14:19:24;;;;;;;;;;;12.30;99.90;;;;;;5110535;28;20266;-62
2023/01/10 14:21:51;;;;;;;;;;;12.30;99.90;;;;;;5096646;28;20276;-63
2023/01/10 14:24:22;;;;;;;;;;;12.30;99.90;;;;;;5111782;28;19912;-63
2023/01/10 14:26:48;;;;;;;;;;;12.10;99.90;;;;;;5111677;28;19958;-62
2023/01/10 14:29:14;;;;;;;;;;;12.10;99.90;;;;;;5083035;28;20342;-63
2023/01/10 14:31:47;;;;;;;;;;;12.10;99.90;;;;;;5105944;28;21052;-62
2023/01/10 14:34:39;;;;;;;;;;;12.10;99.90;;;;;;5092904;28;20007;-63
2023/01/10 14:37:07;;;;;;;;;;;12.10;99.90;;;;;;5085842;28;19931;-64
2023/01/10 14:39:33;;;;;;;;;;;12.10;99.90;;;;;;5095892;28;19941;-62
2023/01/10 14:42:02;;;;;;;;;;;12.00;99.90;;;;;;5110964;28;20326;-63
2023/01/10 14:44:33;;;;;;;;;;;12.00;99.90;;;;;;5104566;28;19916;-63
2023/01/10 14:47:01;;;;;;;;;;;12.00;99.90;;;;;;5111012;28;19911;-61
2023/01/10 14:49:34;;;;;;;;;;;12.00;99.90;;;;;;5111434;28;19998;-63